Time;durP1;ratioP1;P1;durP2;ratioP2;P2;SDS_P1;SDS_P2;PMS_P1;PMS_P2;Temp;Humidity;BMP_temperature;BMP_pressure;BME280_temperature;BME280_humidity;BME280_pressure;Samples;Min_cycle;Max_cycle;Signal;HPM_P1;HPM_P2
2023/05/07 00:01:37;;;;;;;20.35;12.18;;;;;;;12.13;100.00;101705.53;5024426;28;20581;-73
2023/05/07 00:04:03;;;;;;;22.63;12.45;;;;;;;12.11;100.00;101702.06;5024009;28;20504;-73
2023/05/07 00:06:29;;;;;;;19.13;12.02;;;;;;;12.13;100.00;101713.50;5025164;28;20045;-74
2023/05/07 00:08:56;;;;;;;19.92;12.95;;;;;;;12.13;100.00;101706.41;5025777;28;20106;-74
2023/05/07 00:11:21;;;;;;;23.55;12.93;;;;;;;12.12;100.00;101707.34;5020873;28;20755;-73
2023/05/07 00:13:49;;;;;;;19.38;12.45;;;;;;;12.13;100.00;101708.19;5020982;28;20760;-73
2023/05/07 00:16:15;;;;;;;20.55;12.02;;;;;;;12.15;100.00;101711.66;5026043;28;20033;-73
2023/05/07 00:18:41;;;;;;;23.17;13.25;;;;;;;12.14;100.00;101725.84;5026715;28;21472;-73
2023/05/07 00:21:06;;;;;;;20.77;12.55;;;;;;;12.12;100.00;101714.41;5026338;28;20045;-73
2023/05/07 00:23:32;;;;;;;19.60;12.13;;;;;;;12.09;100.00;101713.63;5024586;28;20082;-73
2023/05/07 00:25:58;;;;;;;21.85;12.15;;;;;;;12.07;100.00;101704.84;5007712;28;20045;-74
2023/05/07 00:28:23;;;;;;;24.40;12.77;;;;;;;12.05;100.00;101714.66;5026142;28;20072;-73
2023/05/07 00:30:49;;;;;;;22.23;12.65;;;;;;;12.07;100.00;101712.81;5026563;28;20032;-74
2023/05/07 00:33:15;;;;;;;22.80;11.48;;;;;;;12.05;100.00;101712.00;5026088;28;21224;-73
2023/05/07 00:35:40;;;;;;;18.38;11.98;;;;;;;12.07;100.00;101714.59;5024765;28;20144;-74
2023/05/07 00:38:06;;;;;;;19.33;12.07;;;;;;;12.05;100.00;101711.16;5026557;28;20063;-73
2023/05/07 00:40:31;;;;;;;20.02;12.35;;;;;;;12.04;100.00;101717.38;5025024;28;20235;-74
2023/05/07 00:42:57;;;;;;;19.90;11.60;;;;;;;12.03;100.00;101713.84;5026691;28;20040;-74
2023/05/07 00:45:26;;;;;;;19.92;11.68;;;;;;;12.02;100.00;101714.75;5010060;28;20036;-74
2023/05/07 00:47:53;;;;;;;22.20;12.32;;;;;;;12.03;100.00;101716.50;5026265;28;20049;-75
2023/05/07 00:50:19;;;;;;;22.42;11.70;;;;;;;12.02;100.00;101714.75;5022657;28;20033;-73
2023/05/07 00:52:44;;;;;;;22.33;12.00;;;;;;;12.02;100.00;101713.88;5003761;28;20068;-75
2023/05/07 00:55:09;;;;;;;20.15;12.05;;;;;;;12.00;100.00;101713.94;5020188;28;20033;-73
2023/05/07 00:57:37;;;;;;;21.40;12.43;;;;;;;11.99;100.00;101714.00;5024480;28;20044;-74
2023/05/07 01:00:06;;;;;;;22.75;12.20;;;;;;;11.98;100.00;101705.16;5024126;28;20033;-74
2023/05/07 01:02:31;;;;;;;20.63;11.55;;;;;;;11.97;100.00;101703.44;5023387;28;20508;-74
2023/05/07 01:04:57;;;;;;;21.92;11.63;;;;;;;11.96;100.00;101701.69;5026154;28;20051;-74
2023/05/07 01:07:23;;;;;;;19.00;11.70;;;;;;;11.95;100.00;101703.47;5027766;28;20037;-74
2023/05/07 01:09:49;;;;;;;19.80;11.68;;;;;;;11.93;100.00;101697.38;5013344;28;20381;-73
2023/05/07 01:12:15;;;;;;;19.52;11.98;;;;;;;11.94;100.00;101703.56;4996966;28;20587;-74
2023/05/07 01:14:41;;;;;;;22.27;11.82;;;;;;;11.92;100.00;101700.94;5028350;28;20029;-73
2023/05/07 01:17:08;;;;;;;18.63;11.02;;;;;;;11.92;100.00;101702.72;5025825;28;20033;-73
2023/05/07 01:19:33;;;;;;;18.92;11.10;;;;;;;11.90;100.00;101694.84;5027028;28;20045;-75
2023/05/07 01:22:04;;;;;;;17.17;10.98;;;;;;;11.90;100.00;101694.84;5029997;28;20037;-74
2023/05/07 01:24:31;;;;;;;19.88;11.43;;;;;;;11.88;100.00;101694.03;5027994;28;20037;-74
2023/05/07 01:26:57;;;;;;;18.90;10.70;;;;;;;11.88;100.00;101693.16;5029684;28;20060;-74
2023/05/07 01:29:22;;;;;;;19.20;11.60;;;;;;;11.88;100.00;101694.03;5027694;28;20185;-74
2023/05/07 01:31:49;;;;;;;19.65;10.43;;;;;;;11.87;100.00;101686.13;5028161;28;20041;-73
2023/05/07 01:34:17;;;;;;;19.02;10.57;;;;;;;11.86;100.00;101692.34;4981291;28;20167;-74
2023/05/07 01:36:43;;;;;;;21.45;11.98;;;;;;;11.84;100.00;101688.88;5026706;28;20029;-74
2023/05/07 01:39:08;;;;;;;24.85;11.75;;;;;;;11.83;100.00;101693.34;5010303;28;20518;-74
2023/05/07 01:41:34;;;;;;;18.42;11.40;;;;;;;11.83;100.00;101696.00;5024552;28;20041;-74
2023/05/07 01:44:00;;;;;;;21.45;12.65;;;;;;;11.83;100.00;101701.31;5010717;28;20503;-74
2023/05/07 01:46:27;;;;;;;19.85;12.20;;;;;;;11.81;100.00;101695.16;5024255;28;20127;-75
2023/05/07 01:48:53;;;;;;;22.92;12.40;;;;;;;11.80;100.00;101689.00;5027028;28;20048;-75
2023/05/07 01:51:20;;;;;;;22.17;12.02;;;;;;;11.79;100.00;101683.75;5027717;28;20040;-75
2023/05/07 01:53:50;;;;;;;22.70;13.10;;;;;;;11.78;100.00;101680.22;4996949;28;20122;-75
2023/05/07 01:56:17;;;;;;;22.42;12.40;;;;;;;11.76;100.00;101690.03;5028812;28;20037;-75
2023/05/07 01:58:45;;;;;;;24.23;12.70;;;;;;;11.74;100.00;101688.38;5029459;28;20095;-74
2023/05/07 02:01:11;;;;;;;22.33;12.68;;;;;;;11.71;100.00;101692.00;5028367;28;20454;-74
2023/05/07 02:03:36;;;;;;;23.92;13.10;;;;;;;11.73;100.00;101691.94;5027449;28;20033;-75
2023/05/07 02:06:02;;;;;;;22.80;12.88;;;;;;;11.70;100.00;101697.38;5029883;28;20056;-75
2023/05/07 02:08:28;;;;;;;22.58;13.18;;;;;;;11.70;100.00;101702.69;5029259;28;20063;-74
2023/05/07 02:10:53;;;;;;;22.13;12.93;;;;;;;11.68;100.00;101698.28;5029811;28;20122;-74
2023/05/07 02:13:19;;;;;;;24.77;14.18;;;;;;;11.68;100.00;101697.41;5028725;28;20715;-74
2023/05/07 02:15:49;;;;;;;23.42;14.27;;;;;;;11.65;100.00;101692.22;5028193;28;20072;-74
2023/05/07 02:18:16;;;;;;;22.45;13.77;;;;;;;11.64;100.00;101696.66;5026635;28;20051;-73
2023/05/07 02:20:41;;;;;;;27.17;14.52;;;;;;;11.64;100.00;101693.13;5029640;28;20112;-75
2023/05/07 02:23:07;;;;;;;26.77;14.80;;;;;;;11.63;100.00;101700.25;5027193;28;21697;-74
2023/05/07 02:25:33;;;;;;;27.95;15.60;;;;;;;11.63;100.00;101699.38;5029193;28;20045;-75
2023/05/07 02:27:59;;;;;;;28.20;15.32;;;;;;;11.63;100.00;101696.72;5028529;28;20044;-74
2023/05/07 02:30:25;;;;;;;26.92;15.15;;;;;;;11.63;100.00;101696.72;5028580;28;20614;-75
2023/05/07 02:32:53;;;;;;;28.90;16.00;;;;;;;11.61;100.00;101693.25;5029519;28;20029;-75
2023/05/07 02:35:18;;;;;;;30.65;15.95;;;;;;;11.59;100.00;101698.63;5027104;28;20049;-74
2023/05/07 02:37:44;;;;;;;27.80;16.02;;;;;;;11.60;100.00;101699.50;5029092;28;20929;-75
2023/05/07 02:40:10;;;;;;;29.13;15.93;;;;;;;11.58;100.00;101703.97;5028833;28;20111;-75
2023/05/07 02:42:36;;;;;;;28.65;16.48;;;;;;;11.56;100.00;101704.03;5028597;28;20094;-75
2023/05/07 02:45:02;;;;;;;27.63;16.08;;;;;;;11.55;100.00;101707.59;5029219;28;20452;-75
2023/05/07 02:47:28;;;;;;;29.38;15.63;;;;;;;11.55;100.00;101702.28;5027415;28;20049;-75
2023/05/07 02:49:54;;;;;;;27.73;17.00;;;;;;;11.52;100.00;101711.25;5028283;28;20041;-76
2023/05/07 02:52:20;;;;;;;29.23;16.30;;;;;;;11.52;100.00;101716.56;5021213;28;20112;-75
2023/05/07 02:54:46;;;;;;;28.40;16.33;;;;;;;11.50;100.00;101707.75;5029154;28;20051;-75
2023/05/07 02:57:11;;;;;;;31.52;16.08;;;;;;;11.48;100.00;101712.25;5028383;28;20033;-75
2023/05/07 02:59:37;;;;;;;29.52;17.02;;;;;;;11.46;100.00;101713.22;5025595;28;21047;-75
2023/05/07 03:02:02;;;;;;;29.55;17.30;;;;;;;11.45;100.00;101712.38;5028362;28;20130;-75
2023/05/07 03:04:28;;;;;;;30.30;16.52;;;;;;;11.42;100.00;101712.47;5027994;28;20045;-75
2023/05/07 03:06:54;;;;;;;29.75;16.85;;;;;;;11.40;100.00;101716.97;5028533;28;20068;-75
2023/05/07 03:09:20;;;;;;;28.77;16.25;;;;;;;11.37;100.00;101717.06;5010870;28;20045;-76
2023/05/07 03:11:45;;;;;;;27.27;16.48;;;;;;;11.34;100.00;101709.22;5027943;28;20040;-75
2023/05/07 03:14:11;;;;;;;31.50;17.17;;;;;;;11.32;100.00;101708.44;5010489;28;20207;-75
2023/05/07 03:16:37;;;;;;;30.98;16.30;;;;;;;11.30;100.00;101716.44;5027507;28;20052;-75
2023/05/07 03:19:03;;;;;;;30.42;17.10;;;;;;;11.24;100.00;101709.53;5010117;28;20152;-75
2023/05/07 03:21:28;;;;;;;35.08;17.75;;;;;;;11.22;100.00;101715.84;5023492;28;20033;-75
2023/05/07 03:23:54;;;;;;;29.27;17.15;;;;;;;11.19;100.00;101706.19;5028586;28;20033;-75
2023/05/07 03:26:20;;;;;;;32.05;17.67;;;;;;;11.17;100.00;101713.31;5026748;28;20074;-76
2023/05/07 03:28:45;;;;;;;32.38;17.55;;;;;;;11.14;100.00;101714.31;5029012;28;20047;-76
2023/05/07 03:31:11;;;;;;;30.02;17.80;;;;;;;11.12;100.00;101716.13;5027952;28;20048;-75
2023/05/07 03:33:42;;;;;;;32.08;17.45;;;;;;;11.11;100.00;101708.25;5026992;28;20036;-76
2023/05/07 03:36:08;;;;;;;31.40;17.77;;;;;;;11.08;100.00;101719.81;5026875;28;20064;-73
2023/05/07 03:38:34;;;;;;;28.75;16.88;;;;;;;11.06;100.00;101715.47;5023929;28;21627;-74
2023/05/07 03:40:59;;;;;;;30.25;17.83;;;;;;;11.03;100.00;101715.56;5027141;28;20060;-75
2023/05/07 03:43:25;;;;;;;28.17;17.05;;;;;;;11.03;100.00;101715.56;5027233;28;21030;-73
2023/05/07 03:45:50;;;;;;;35.05;18.23;;;;;;;11.02;100.00;101712.06;5028194;28;20155;-74
2023/05/07 03:48:16;;;;;;;33.92;18.48;;;;;;;11.02;100.00;101719.13;5027420;28;20057;-74
2023/05/07 03:50:42;;;;;;;36.05;19.95;;;;;;;10.99;100.00;101715.69;5006820;28;20142;-73
2023/05/07 03:53:07;;;;;;;34.97;18.90;;;;;;;10.96;100.00;101715.78;5025940;28;20127;-74
2023/05/07 03:55:33;;;;;;;34.35;18.52;;;;;;;10.94;100.00;101728.22;5022531;28;20048;-74
2023/05/07 03:57:58;;;;;;;36.20;19.08;;;;;;;10.92;100.00;101716.81;5026823;28;20044;-73
2023/05/07 04:00:24;;;;;;;35.67;18.58;;;;;;;10.88;100.00;101717.81;5025064;28;20037;-74
2023/05/07 04:02:49;;;;;;;35.47;18.17;;;;;;;10.85;100.00;101717.94;5025124;28;20033;-74
2023/05/07 04:05:15;;;;;;;32.05;18.38;;;;;;;10.79;100.00;101728.72;5026054;28;21283;-74
2023/05/07 04:07:41;;;;;;;33.88;18.38;;;;;;;10.75;100.00;101721.78;5027238;28;20032;-75
2023/05/07 04:10:07;;;;;;;37.75;19.65;;;;;;;10.72;100.00;101723.63;5027224;28;20049;-74
2023/05/07 04:12:32;;;;;;;34.70;18.70;;;;;;;10.70;100.00;101728.09;5025804;28;20025;-74
2023/05/07 04:14:58;;;;;;;33.53;18.02;;;;;;;10.70;100.00;101721.94;5019393;28;20130;-74
2023/05/07 04:17:23;;;;;;;37.97;19.50;;;;;;;10.69;100.00;101733.44;5026910;28;20041;-75
2023/05/07 04:19:49;;;;;;;37.95;19.50;;;;;;;10.69;100.00;101729.00;5026081;28;20041;-74
2023/05/07 04:22:15;;;;;;;36.05;19.48;;;;;;;10.67;100.00;101728.19;5026704;28;20040;-74
2023/05/07 04:24:41;;;;;;;36.88;19.63;;;;;;;10.67;100.00;101730.84;5025074;28;20038;-75
2023/05/07 04:27:07;;;;;;;36.05;19.35;;;;;;;10.68;100.00;101726.41;5026965;28;20037;-74
2023/05/07 04:29:32;;;;;;;36.47;19.05;;;;;;;10.69;100.00;101730.78;5001627;28;20041;-75
2023/05/07 04:31:58;;;;;;;36.67;18.48;;;;;;;10.66;100.00;101729.09;5026324;28;20427;-74
2023/05/07 04:34:24;;;;;;;38.05;20.30;;;;;;;10.67;100.00;101732.63;5025821;28;20043;-74
2023/05/07 04:36:49;;;;;;;38.47;19.55;;;;;;;10.66;100.00;101741.47;5024719;28;20060;-75
2023/05/07 04:39:15;;;;;;;41.33;20.63;;;;;;;10.65;100.00;101737.09;5024591;28;20476;-75
2023/05/07 04:41:40;;;;;;;38.00;19.83;;;;;;;10.65;100.00;101747.69;5029474;28;20404;-74
2023/05/07 04:44:06;;;;;;;36.65;19.80;;;;;;;10.62;100.00;101743.34;5027329;28;20123;-74
2023/05/07 04:46:31;;;;;;;39.47;21.40;;;;;;;10.61;100.00;101738.13;5027964;28;20064;-74
2023/05/07 04:49:00;;;;;;;38.22;19.95;;;;;;;10.63;100.00;101749.53;5027292;28;20059;-74
2023/05/07 04:51:26;;;;;;;38.45;20.48;;;;;;;10.59;100.00;101744.31;5029701;28;20488;-74
2023/05/07 04:53:51;;;;;;;40.65;20.70;;;;;;;10.59;100.00;101743.47;5028372;28;20040;-74
2023/05/07 04:56:17;;;;;;;39.50;20.13;;;;;;;10.61;100.00;101757.50;5030430;28;20037;-75
2023/05/07 04:58:42;;;;;;;41.50;20.15;;;;;;;10.61;100.00;101756.66;5028263;28;20033;-75
2023/05/07 05:01:08;;;;;;;37.83;20.52;;;;;;;10.60;100.00;101755.78;5029639;28;20041;-74
2023/05/07 05:03:33;;;;;;;36.80;20.42;;;;;;;10.62;100.00;101761.03;5029824;28;20044;-75
2023/05/07 05:05:59;;;;;;;45.55;21.35;;;;;;;10.62;100.00;101758.38;5029728;28;20044;-74
2023/05/07 05:08:25;;;;;;;40.95;20.60;;;;;;;10.63;100.00;101760.13;5030324;28;20036;-74
2023/05/07 05:10:51;;;;;;;45.60;21.83;;;;;;;10.62;100.00;101764.53;5028576;28;20039;-74
2023/05/07 05:13:17;;;;;;;38.92;20.00;;;;;;;10.61;100.00;101764.59;5030546;28;20479;-75
2023/05/07 05:15:43;;;;;;;46.15;22.17;;;;;;;10.61;100.00;101761.94;5027288;28;20118;-75
2023/05/07 05:18:08;;;;;;;41.45;21.92;;;;;;;10.63;100.00;101773.34;5026232;28;20056;-75
2023/05/07 05:20:34;;;;;;;42.53;21.35;;;;;;;10.63;100.00;101760.13;5030796;28;20533;-74
2023/05/07 05:22:59;;;;;;;44.63;21.48;;;;;;;10.61;100.00;101765.44;5029367;28;20061;-73
2023/05/07 05:25:25;;;;;;;43.15;22.23;;;;;;;10.60;100.00;101771.66;5030102;28;20045;-73
2023/05/07 05:27:50;;;;;;;37.33;20.70;;;;;;;10.64;100.00;101775.97;5028235;28;20040;-74
2023/05/07 05:30:16;;;;;;;44.33;20.85;;;;;;;10.65;100.00;101775.03;5030599;28;21714;-74
2023/05/07 05:32:41;;;;;;;40.22;21.25;;;;;;;10.65;100.00;101775.03;5029468;28;20128;-73
2023/05/07 05:35:07;;;;;;;43.85;22.35;;;;;;;10.63;100.00;101782.19;5030098;28;20620;-74
2023/05/07 05:37:33;;;;;;;42.67;22.20;;;;;;;10.64;100.00;101777.72;5027968;28;20084;-74
2023/05/07 05:39:59;;;;;;;41.88;22.13;;;;;;;10.64;100.00;101778.63;5011878;28;20033;-74
2023/05/07 05:42:25;;;;;;;40.70;21.20;;;;;;;10.65;100.00;101779.47;5027369;28;20033;-74
2023/05/07 05:44:50;;;;;;;40.65;21.20;;;;;;;10.64;100.00;101770.66;5029584;28;20039;-74
2023/05/07 05:47:16;;;;;;;46.08;22.88;;;;;;;10.69;100.00;101774.00;5011847;28;20511;-74
2023/05/07 05:49:43;;;;;;;49.00;22.33;;;;;;;10.72;100.00;101773.94;5028999;28;20547;-74
2023/05/07 05:52:08;;;;;;;40.97;21.88;;;;;;;10.76;100.00;101779.13;5026566;28;20067;-74
2023/05/07 05:54:34;;;;;;;44.35;21.95;;;;;;;10.79;100.00;101777.25;5027789;28;21919;-74
2023/05/07 05:57:00;;;;;;;42.58;21.85;;;;;;;10.80;100.00;101783.44;5029405;28;20048;-74
2023/05/07 05:59:25;;;;;;;44.42;22.17;;;;;;;10.79;100.00;101782.53;5029963;28;20056;-74
2023/05/07 06:01:51;;;;;;;42.17;21.67;;;;;;;10.83;100.00;101780.66;4996077;28;20087;-74
2023/05/07 06:04:17;;;;;;;43.92;22.40;;;;;;;10.85;100.00;101782.34;5030023;28;20045;-74
2023/05/07 06:06:42;;;;;;;41.47;21.05;;;;;;;10.87;100.00;101782.31;5030094;28;20167;-74
2023/05/07 06:09:08;;;;;;;34.92;20.10;;;;;;;10.86;100.00;101786.72;5024161;28;20160;-74
2023/05/07 06:11:33;;;;;;;39.22;20.25;;;;;;;10.90;100.00;101790.16;5029402;28;20048;-73
2023/05/07 06:13:59;;;;;;;39.30;20.40;;;;;;;10.93;100.00;101792.72;5029322;28;20036;-73
2023/05/07 06:16:25;;;;;;;39.05;21.05;;;;;;;10.96;100.00;101791.75;5029177;28;20045;-73
2023/05/07 06:18:50;;;;;;;40.28;19.92;;;;;;;10.98;100.00;101804.03;5027915;28;20387;-74
2023/05/07 06:21:16;;;;;;;41.72;21.67;;;;;;;10.98;100.00;101808.47;5028203;28;20037;-74
2023/05/07 06:23:41;;;;;;;37.95;20.40;;;;;;;11.00;100.00;101804.84;5029857;28;20029;-73
2023/05/07 06:26:07;;;;;;;37.05;20.45;;;;;;;11.02;100.00;101795.97;5029514;28;20713;-74
2023/05/07 06:28:35;;;;;;;35.30;19.58;;;;;;;11.03;100.00;101805.66;5030239;28;20687;-74
2023/05/07 06:31:20;;;;;;;35.60;19.65;;;;;;;11.05;100.00;101799.41;5028894;28;20103;-75
2023/05/07 06:33:46;;;;;;;38.20;20.35;;;;;;;11.07;100.00;101804.66;5026024;28;20144;-74
2023/05/07 06:36:11;;;;;;;34.58;19.52;;;;;;;11.08;100.00;101807.25;5025467;28;20045;-75
2023/05/07 06:38:37;;;;;;;35.58;18.88;;;;;;;11.12;100.00;101808.88;5028407;28;20076;-74
2023/05/07 06:41:02;;;;;;;36.90;20.73;;;;;;;11.22;100.00;101811.25;5027438;28;20130;-74
2023/05/07 06:43:28;;;;;;;33.78;18.40;;;;;;;11.27;100.00;101812.81;5028842;28;20057;-74
2023/05/07 06:45:53;;;;;;;32.35;18.98;;;;;;;11.33;100.00;101810.91;5026712;28;20044;-74
2023/05/07 06:48:19;;;;;;;33.30;17.70;;;;;;;11.35;100.00;101815.22;5028362;28;20049;-74
2023/05/07 06:50:45;;;;;;;31.92;18.25;;;;;;;11.36;100.00;101821.38;5027673;28;20998;-74
2023/05/07 06:53:10;;;;;;;30.83;18.13;;;;;;;11.37;100.00;101823.13;5027075;28;20045;-74
2023/05/07 06:55:38;;;;;;;29.83;18.35;;;;;;;11.37;100.00;101820.47;5028090;28;20082;-74
2023/05/07 06:58:04;;;;;;;30.27;18.13;;;;;;;11.36;100.00;101821.38;5027202;28;20523;-74
2023/05/07 07:00:30;;;;;;;33.22;19.02;;;;;;;11.41;100.00;101832.72;5028427;28;20060;-74
2023/05/07 07:02:56;;;;;;;28.08;17.00;;;;;;;11.44;100.00;101829.94;5028473;28;20041;-74
2023/05/07 07:05:22;;;;;;;29.48;17.60;;;;;;;11.48;100.00;101834.25;5028818;28;20047;-74
2023/05/07 07:07:52;;;;;;;29.25;17.50;;;;;;;11.53;100.00;101831.44;5027786;28;20048;-73
2023/05/07 07:10:22;;;;;;;32.58;18.00;;;;;;;11.58;100.00;101840.09;5027465;28;20051;-74
2023/05/07 07:12:48;;;;;;;31.98;17.92;;;;;;;11.63;100.00;101831.97;5026441;28;20029;-74
2023/05/07 07:15:14;;;;;;;29.77;17.08;;;;;;;11.70;100.00;101833.50;5028203;28;20155;-74
2023/05/07 07:17:39;;;;;;;33.05;18.33;;;;;;;11.77;100.00;101824.41;5028460;28;20548;-74
2023/05/07 07:20:05;;;;;;;28.92;17.00;;;;;;;11.88;100.00;101831.16;5026343;28;20118;-74
2023/05/07 07:22:31;;;;;;;33.28;18.10;;;;;;;11.95;100.00;101837.97;5028631;28;20518;-74
2023/05/07 07:24:56;;;;;;;29.17;17.80;;;;;;;11.95;100.00;101828.19;5028798;28;20029;-74
2023/05/07 07:27:22;;;;;;;29.35;17.38;;;;;;;12.01;100.00;101842.19;5026448;28;20066;-74
2023/05/07 07:29:47;;;;;;;28.23;17.23;;;;;;;12.04;100.00;101837.66;5025753;28;20082;-73
2023/05/07 07:32:13;;;;;;;29.02;17.40;;;;;;;12.15;100.00;101839.06;5024099;28;20036;-73
2023/05/07 07:34:39;;;;;;;27.70;17.17;;;;;;;12.25;100.00;101829.00;5026184;28;20040;-73
2023/05/07 07:37:05;;;;;;;26.95;15.90;;;;;;;12.34;100.00;101840.13;5027621;28;20200;-74
2023/05/07 07:39:31;;;;;;;25.20;16.17;;;;;;;12.39;100.00;101839.97;5027892;28;20071;-74
2023/05/07 07:41:57;;;;;;;25.98;15.93;;;;;;;12.43;100.00;101838.06;5026289;28;20044;-72
2023/05/07 07:44:22;;;;;;;27.65;17.42;;;;;;;12.46;100.00;101840.56;5028160;28;20041;-74
2023/05/07 07:46:48;;;;;;;25.90;16.63;;;;;;;12.41;100.00;101834.59;5025670;28;20575;-74
2023/05/07 07:49:14;;;;;;;27.90;15.75;;;;;;;12.36;100.00;101835.63;5027880;28;20493;-73
2023/05/07 07:51:40;;;;;;;26.10;16.08;;;;;;;12.38;100.00;101840.88;5028921;28;20047;-73
2023/05/07 07:54:06;;;;;;;27.13;15.95;;;;;;;12.44;100.00;101834.47;5024165;28;20048;-74
2023/05/07 07:56:37;;;;;;;23.92;15.07;;;;;;;12.51;100.00;101830.66;5027794;28;20025;-73
2023/05/07 07:59:02;;;;;;;30.60;17.35;;;;;;;12.56;100.00;101827.81;5026953;28;20104;-74
2023/05/07 08:01:29;;;;;;;25.95;15.93;;;;;;;12.60;100.00;101830.28;5025734;28;20044;-74
2023/05/07 08:03:55;;;;;;;23.10;15.77;;;;;;;12.63;100.00;101830.19;5027449;28;20048;-74
2023/05/07 08:06:23;;;;;;;26.58;15.73;;;;;;;12.67;100.00;101838.03;5027674;28;20642;-74
2023/05/07 08:08:49;;;;;;;23.52;15.48;;;;;;;12.69;100.00;101828.22;5026519;28;20126;-73
2023/05/07 08:11:14;;;;;;;28.50;16.55;;;;;;;12.75;100.00;101826.19;5021865;28;20877;-74
2023/05/07 08:13:40;;;;;;;26.73;15.63;;;;;;;12.79;100.00;101826.09;5014411;28;20040;-74
2023/05/07 08:16:06;;;;;;;26.17;16.75;;;;;;;12.81;100.00;101819.75;5027908;28;20037;-74
2023/05/07 08:18:31;;;;;;;26.25;16.23;;;;;;;12.89;100.00;101825.66;5027443;28;20182;-74
2023/05/07 08:20:57;;;;;;;27.85;16.50;;;;;;;12.95;100.00;101823.66;5026661;28;20110;-74
2023/05/07 08:23:22;;;;;;;25.40;15.60;;;;;;;13.01;100.00;101831.38;5026286;28;20128;-75
2023/05/07 08:25:49;;;;;;;26.10;16.67;;;;;;;13.20;100.00;101833.31;5026121;28;20472;-74
2023/05/07 08:28:15;;;;;;;25.35;15.88;;;;;;;13.36;100.00;101830.91;5023999;28;20369;-74
2023/05/07 08:30:40;;;;;;;24.88;16.27;;;;;;;13.50;100.00;101836.53;5026548;28;20052;-74
2023/05/07 08:33:06;;;;;;;25.00;16.13;;;;;;;13.58;100.00;101833.56;5026819;28;21989;-74
2023/05/07 08:35:31;;;;;;;25.58;15.85;;;;;;;13.65;100.00;101836.81;5025936;28;20045;-74
2023/05/07 08:37:57;;;;;;;25.85;16.45;;;;;;;13.77;100.00;101836.28;5026405;28;21896;-74
2023/05/07 08:40:25;;;;;;;24.33;15.88;;;;;;;13.89;100.00;101842.88;5027098;28;21947;-75
2023/05/07 08:42:52;;;;;;;24.65;16.10;;;;;;;14.02;100.00;101837.00;5027516;28;20047;-75
2023/05/07 08:45:19;;;;;;;27.02;16.15;;;;;;;14.13;100.00;101845.41;5027707;28;20063;-75
2023/05/07 08:47:47;;;;;;;24.52;16.52;;;;;;;14.24;100.00;101843.13;5022835;28;20053;-74
2023/05/07 08:50:13;;;;;;;24.40;15.93;;;;;;;14.38;100.00;101844.25;5025485;28;20037;-75
2023/05/07 08:52:42;;;;;;;24.95;14.75;;;;;;;14.45;100.00;101845.75;5023877;28;20046;-75
2023/05/07 08:55:08;;;;;;;26.10;16.30;;;;;;;14.47;100.00;101833.22;5039425;28;20045;-75
2023/05/07 08:57:35;;;;;;;22.23;14.52;;;;;;;14.55;100.00;101842.63;5023216;28;20484;-76
2023/05/07 09:00:02;;;;;;;24.35;15.63;;;;;;;14.64;100.00;101851.06;5026624;28;20060;-76
2023/05/07 09:02:28;;;;;;;23.13;14.98;;;;;;;14.77;100.00;101846.03;5025047;28;20053;-76
2023/05/07 09:04:53;;;;;;;23.60;15.80;;;;;;;14.86;100.00;101847.41;5026063;28;20133;-77
2023/05/07 09:07:20;;;;;;;25.58;15.85;;;;;;;15.01;100.00;101851.16;5025214;28;20045;-76
2023/05/07 09:09:46;;;;;;;23.05;14.75;;;;;;;15.17;100.00;101850.41;5026190;28;20072;-76
2023/05/07 09:12:11;;;;;;;24.98;15.80;;;;;;;15.32;100.00;101848.78;5025326;28;20648;-77
2023/05/07 09:14:38;;;;;;;22.95;15.20;;;;;;;15.51;100.00;101850.56;5025587;28;20038;-76
2023/05/07 09:17:04;;;;;;;21.60;14.32;;;;;;;15.54;100.00;101859.25;5023201;28;20053;-77
2023/05/07 09:19:30;;;;;;;23.15;14.75;;;;;;;15.60;100.00;101853.59;5025765;28;20171;-77
2023/05/07 09:22:03;;;;;;;20.35;14.43;;;;;;;15.63;100.00;101859.72;5037049;28;20040;-77
2023/05/07 09:24:30;;;;;;;;;;;;;;;15.60;100.00;101850.06;5022654;28;20043;-76
2023/05/07 09:27:00;;;;;;;23.92;14.55;;;;;;;15.71;100.00;101858.41;5028045;28;19921;-74
2023/05/07 09:29:25;;;;;;;22.17;14.65;;;;;;;15.87;100.00;101861.13;5028314;28;20037;-75
2023/05/07 09:31:51;;;;;;;22.50;14.45;;;;;;;16.05;100.00;101854.94;5029960;28;20043;-75
2023/05/07 09:34:17;;;;;;;21.63;14.45;;;;;;;16.13;100.00;101853.59;5030395;28;20515;-75
2023/05/07 09:36:43;;;;;;;21.25;14.88;;;;;;;16.24;100.00;101854.84;5025177;28;20190;-75
2023/05/07 09:39:08;;;;;;;20.55;14.82;;;;;;;16.34;100.00;101864.06;5029548;28;20043;-75
2023/05/07 09:41:43;;;;;;;22.27;14.43;;;;;;;16.41;100.00;101861.94;5028093;28;20993;-75
2023/05/07 09:44:09;;;;;;;21.25;14.05;;;;;;;16.44;100.00;101845.72;5028630;28;20033;-76
2023/05/07 09:46:36;;;;;;;21.95;14.90;;;;;;;16.47;100.00;101852.72;5027254;28;20033;-76
2023/05/07 09:49:02;;;;;;;21.10;14.23;;;;;;;16.54;100.00;101846.09;5029036;28;20139;-75
2023/05/07 09:51:39;;;;;;;21.83;15.07;;;;;;;16.68;100.00;101854.22;5027967;28;20051;-76
2023/05/07 09:54:06;;;;;;;23.25;14.80;;;;;;;16.69;100.00;101853.25;5041727;28;20041;-76
2023/05/07 09:56:32;;;;;;;21.33;13.52;;;;;;;16.68;100.00;101862.22;5027863;28;20043;-75
2023/05/07 09:59:00;;;;;;;22.83;14.63;;;;;;;16.67;100.00;101863.19;5028057;28;20041;-76
2023/05/07 10:01:27;;;;;;;20.90;13.77;;;;;;;16.60;100.00;101863.63;5027343;28;21076;-75
2023/05/07 10:03:53;;;;;;;24.52;14.88;;;;;;;16.51;100.00;101862.31;5028154;28;20484;-74
2023/05/07 10:06:20;;;;;;;23.08;14.82;;;;;;;16.48;100.00;101862.47;5029152;28;20039;-74
2023/05/07 10:08:46;;;;;;;22.88;15.05;;;;;;;16.46;100.00;101865.25;5026703;28;20159;-74
2023/05/07 10:11:15;;;;;;;23.95;14.65;;;;;;;16.48;100.00;101868.69;5011083;28;20111;-77
2023/05/07 10:13:44;;;;;;;24.20;14.93;;;;;;;16.54;100.00;101859.44;5028040;28;20044;-77
2023/05/07 10:16:09;;;;;;;22.65;14.25;;;;;;;16.59;100.00;101859.19;5026154;28;20044;-77
2023/05/07 10:18:35;;;;;;;24.15;14.65;;;;;;;16.61;100.00;101860.00;5027018;28;20488;-77
2023/05/07 10:21:07;;;;;;;23.55;14.88;;;;;;;16.65;100.00;101853.50;5028928;28;20108;-77
2023/05/07 10:23:34;;;;;;;26.15;15.52;;;;;;;16.73;100.00;101858.44;5011016;28;21202;-76
2023/05/07 10:26:04;;;;;;;24.67;15.18;;;;;;;16.79;100.00;101861.63;5030124;28;20045;-77
2023/05/07 10:28:34;;;;;;;21.85;14.35;;;;;;;16.80;100.00;101859.81;5009392;28;20025;-77
2023/05/07 10:31:12;;;;;;;25.80;16.00;;;;;;;16.89;100.00;101856.63;5020883;28;20040;-77
2023/05/07 10:33:39;;;;;;;24.33;15.65;;;;;;;16.93;100.00;101857.31;5028812;28;20037;-77
2023/05/07 10:36:06;;;;;;;27.70;15.95;;;;;;;17.00;100.00;101852.50;5025915;28;20041;-77
2023/05/07 10:38:32;;;;;;;24.58;14.90;;;;;;;17.04;100.00;101854.06;5026902;28;20128;-77
2023/05/07 10:40:58;;;;;;;23.70;15.07;;;;;;;16.96;100.00;101852.66;5011147;28;20040;-77
2023/05/07 10:43:23;;;;;;;23.45;15.40;;;;;;;16.95;100.00;101861.63;5028268;28;20045;-77
2023/05/07 10:46:15;;;;;;;22.77;14.93;;;;;;;17.02;100.00;101848.81;5027347;28;20988;-77
2023/05/07 10:49:03;;;;;;;23.48;15.32;;;;;;;17.14;100.00;101855.28;5025979;28;20049;-79
2023/05/07 10:51:33;;;;;;;25.33;15.43;;;;;;;17.20;100.00;101852.25;5028392;28;20128;-78
2023/05/07 10:54:14;;;;;;;24.38;15.23;;;;;;;17.26;100.00;101860.88;4995065;28;20314;-77
2023/05/07 10:56:44;;;;;;;24.73;14.75;;;;;;;17.31;100.00;101858.78;5027518;28;20036;-76
2023/05/07 10:59:30;;;;;;;22.88;14.93;;;;;;;17.33;100.00;101865.78;5028704;28;20069;-78